createdAt,value
2019-05-05T00:01:51.610Z,6.13
2019-05-05T00:04:42.819Z,5.33
2019-05-05T00:07:14.894Z,7.10
2019-05-05T00:09:44.980Z,6.87
2019-05-05T00:12:36.007Z,6.47
2019-05-05T00:15:25.118Z,6.73
2019-05-05T00:17:55.014Z,7.43
2019-05-05T00:20:25.046Z,5.57
2019-05-05T00:22:54.667Z,6.50
2019-05-05T00:25:24.929Z,6.53
2019-05-05T00:27:54.649Z,5.83
2019-05-05T00:30:24.910Z,5.73
2019-05-05T00:32:54.961Z,6.23
2019-05-05T00:36:30.546Z,8.00
2019-05-05T00:38:59.785Z,5.80
2019-05-05T00:41:29.063Z,6.27
2019-05-05T00:43:58.219Z,7.03
2019-05-05T00:46:44.594Z,6.97
2019-05-05T00:49:14.557Z,8.53
2019-05-05T00:51:44.372Z,8.70
2019-05-05T00:54:14.911Z,15.50
2019-05-05T00:56:45.049Z,8.50
2019-05-05T01:02:20.571Z,7.70
2019-05-05T01:05:14.971Z,6.93
2019-05-05T01:07:44.468Z,6.30
2019-05-05T01:10:14.332Z,6.60
2019-05-05T01:12:45.021Z,5.90
2019-05-05T01:15:15.045Z,7.53
2019-05-05T01:17:45.138Z,16.97
2019-05-05T01:20:14.759Z,20.97
2019-05-05T01:22:44.801Z,7.67
2019-05-05T01:25:14.985Z,6.83
2019-05-05T01:27:45.291Z,10.93
2019-05-05T01:30:18.674Z,6.13
2019-05-05T01:32:50.817Z,8.20
2019-05-05T01:35:20.106Z,9.87
2019-05-05T01:37:55.661Z,6.67
2019-05-05T01:40:36.651Z,8.17
2019-05-05T01:43:05.921Z,6.87
2019-05-05T01:45:35.465Z,7.60
2019-05-05T01:48:05.007Z,8.17
2019-05-05T01:50:34.944Z,7.77
2019-05-05T01:53:04.822Z,9.40
2019-05-05T01:55:34.732Z,9.93
2019-05-05T01:58:04.829Z,7.43
2019-05-05T02:00:34.791Z,6.80
2019-05-05T02:03:04.664Z,8.90
2019-05-05T02:05:34.791Z,7.37
2019-05-05T02:08:05.092Z,5.53
2019-05-05T02:10:35.001Z,8.97
2019-05-05T02:13:04.796Z,7.33
2019-05-05T02:15:34.491Z,9.13
2019-05-05T02:18:04.503Z,9.47
2019-05-05T02:20:41.871Z,6.80
2019-05-05T02:23:12.779Z,6.27
2019-05-05T02:25:42.314Z,8.50
2019-05-05T02:28:11.546Z,9.07
2019-05-05T02:31:16.677Z,7.60
2019-05-05T02:33:46.176Z,8.53
2019-05-05T02:36:16.092Z,8.73
2019-05-05T02:38:46.393Z,10.97
2019-05-05T02:41:16.590Z,9.10
2019-05-05T02:43:46.111Z,9.07
2019-05-05T02:46:28.480Z,10.23
2019-05-05T02:48:59.933Z,8.70
2019-05-05T02:51:29.739Z,10.07
2019-05-05T02:54:01.066Z,7.73
2019-05-05T02:56:37.903Z,6.93
2019-05-05T02:59:09.701Z,8.03
2019-05-05T03:01:50.352Z,6.93
2019-05-05T03:04:20.119Z,7.60
2019-05-05T03:06:54.017Z,10.80
2019-05-05T03:09:25.071Z,6.83
2019-05-05T03:11:57.075Z,9.73
2019-05-05T03:14:28.850Z,8.10
2019-05-05T03:16:58.190Z,9.17
2019-05-05T03:19:28.035Z,7.33
2019-05-05T03:21:57.408Z,8.10
2019-05-05T03:24:27.165Z,9.13
2019-05-05T03:26:56.819Z,8.67
2019-05-05T03:29:26.688Z,6.47
2019-05-05T03:31:56.636Z,9.30
2019-05-05T03:34:26.714Z,11.97
2019-05-05T03:36:56.287Z,9.00
2019-05-05T03:39:27.119Z,8.77
2019-05-05T03:42:25.973Z,9.67
2019-05-05T03:44:58.299Z,10.23
2019-05-05T03:47:28.808Z,7.23
2019-05-05T03:49:58.399Z,8.90
2019-05-05T03:52:28.036Z,11.83
2019-05-05T03:54:58.134Z,7.80
2019-05-05T03:57:27.408Z,6.33
2019-05-05T03:59:57.431Z,9.80
2019-05-05T04:02:53.738Z,8.20
2019-05-05T04:05:49.024Z,10.30
2019-05-05T04:08:19.008Z,12.37
2019-05-05T04:10:48.204Z,9.10
2019-05-05T04:13:18.314Z,10.77
2019-05-05T04:16:08.851Z,9.23
2019-05-05T04:18:44.631Z,11.60
2019-05-05T04:21:14.531Z,7.60
2019-05-05T04:23:44.257Z,13.07
2019-05-05T04:26:14.236Z,8.17
2019-05-05T04:28:43.753Z,6.50
2019-05-05T04:31:13.643Z,7.50
2019-05-05T04:33:44.498Z,5.97
2019-05-05T04:36:14.560Z,8.50
2019-05-05T04:38:44.142Z,8.50
2019-05-05T04:41:14.148Z,7.63
2019-05-05T04:43:44.228Z,8.77
2019-05-05T04:46:14.149Z,8.50
2019-05-05T04:48:57.810Z,7.77
2019-05-05T04:51:43.987Z,7.23
2019-05-05T04:54:17.099Z,7.73
2019-05-05T04:56:46.279Z,6.90
2019-05-05T04:59:16.196Z,7.47
2019-05-05T05:01:46.164Z,6.13
2019-05-05T05:04:24.937Z,6.53
2019-05-05T05:06:55.934Z,7.17
2019-05-05T05:09:25.370Z,7.73
2019-05-05T05:11:54.812Z,6.50
2019-05-05T05:14:24.795Z,7.57
2019-05-05T05:16:55.552Z,6.70
2019-05-05T05:19:24.756Z,7.17
2019-05-05T05:22:01.229Z,7.00
2019-05-05T05:24:24.947Z,8.07
2019-05-05T05:26:55.557Z,5.40
2019-05-05T05:29:24.795Z,5.83
2019-05-05T05:31:54.034Z,6.03
2019-05-05T05:34:23.901Z,6.57
2019-05-05T05:36:53.688Z,5.97
2019-05-05T05:39:31.166Z,5.43
2019-05-05T05:42:00.441Z,9.50
2019-05-05T05:44:57.984Z,8.87
2019-05-05T05:47:55.559Z,8.97
2019-05-05T05:50:29.259Z,8.10
2019-05-05T05:52:58.459Z,8.00
2019-05-05T05:55:27.607Z,8.17
2019-05-05T05:57:56.873Z,6.50
2019-05-05T06:00:26.175Z,6.93
2019-05-05T06:02:55.410Z,8.53
2019-05-05T06:05:24.565Z,7.77
2019-05-05T06:07:54.520Z,6.70
2019-05-05T06:10:27.037Z,10.13
2019-05-05T06:12:54.878Z,8.90
2019-05-05T06:15:24.577Z,8.67
2019-05-05T06:17:54.009Z,7.93
2019-05-05T06:20:23.858Z,8.17
2019-05-05T06:22:53.665Z,7.80
2019-05-05T06:25:26.207Z,9.90
2019-05-05T06:27:54.175Z,8.53
2019-05-05T06:30:24.361Z,7.83
2019-05-05T06:32:54.371Z,10.00
2019-05-05T06:35:24.466Z,9.33
2019-05-05T06:37:54.620Z,8.20
2019-05-05T06:40:44.261Z,7.60
2019-05-05T06:43:28.127Z,8.17
2019-05-05T06:45:59.587Z,7.77
2019-05-05T06:48:28.799Z,8.10
2019-05-05T06:50:58.035Z,8.50
2019-05-05T06:53:27.247Z,7.83
2019-05-05T06:55:56.490Z,10.10
2019-05-05T06:58:25.639Z,8.00
2019-05-05T07:00:54.874Z,8.13
2019-05-05T07:03:24.431Z,8.10
2019-05-05T07:05:54.024Z,8.63
2019-05-05T07:08:24.373Z,7.70
2019-05-05T07:10:54.870Z,8.73
2019-05-05T07:13:24.492Z,8.10
2019-05-05T07:15:54.333Z,5.33
2019-05-05T07:18:24.697Z,8.57
2019-05-05T07:20:54.596Z,7.70
2019-05-05T07:23:24.582Z,8.07
2019-05-05T07:25:54.950Z,9.50
2019-05-05T07:28:24.402Z,8.97
2019-05-05T07:30:54.780Z,9.43
2019-05-05T07:33:24.161Z,7.47
2019-05-05T07:36:11.074Z,6.13
2019-05-05T07:38:40.335Z,8.50
2019-05-05T07:41:09.515Z,6.83
2019-05-05T07:43:38.662Z,6.60
2019-05-05T07:46:07.916Z,7.63
2019-05-05T07:48:37.163Z,5.97
2019-05-05T07:51:06.352Z,6.17
2019-05-05T07:53:35.503Z,8.43
2019-05-05T07:56:07.636Z,7.00
2019-05-05T07:58:35.652Z,7.53
2019-05-05T08:01:04.895Z,8.30
2019-05-05T08:03:34.039Z,8.03
2019-05-05T08:06:03.927Z,6.73
2019-05-05T08:08:33.599Z,8.10
2019-05-05T08:11:04.808Z,5.97
2019-05-05T08:13:34.548Z,8.53
2019-05-05T08:16:07.103Z,7.03
2019-05-05T08:19:07.724Z,6.73
2019-05-05T08:21:37.449Z,7.90
2019-05-05T08:24:29.054Z,8.50
2019-05-05T08:27:29.343Z,7.10
2019-05-05T08:30:05.215Z,5.63
2019-05-05T08:32:36.583Z,5.07
2019-05-05T08:35:06.908Z,5.70
2019-05-05T08:37:36.150Z,4.90
2019-05-05T08:40:05.685Z,5.17
2019-05-05T08:42:34.988Z,5.60
2019-05-05T08:45:04.737Z,9.17
2019-05-05T08:47:34.636Z,4.57
2019-05-05T08:50:04.217Z,6.20
2019-05-05T08:52:34.299Z,7.80
2019-05-05T08:55:04.651Z,6.23
2019-05-05T08:57:34.198Z,4.97
2019-05-05T09:00:04.854Z,6.07
2019-05-05T09:02:36.139Z,6.70
2019-05-05T09:05:05.271Z,8.17
2019-05-05T09:07:34.705Z,4.53
2019-05-05T09:10:04.246Z,5.17
2019-05-05T09:12:33.982Z,3.80
2019-05-05T09:15:04.427Z,4.30
2019-05-05T09:17:33.786Z,8.23
2019-05-05T09:20:04.575Z,5.27
2019-05-05T09:22:34.818Z,6.37
2019-05-05T09:25:23.544Z,6.97
2019-05-05T09:27:56.075Z,5.53
2019-05-05T09:30:36.510Z,8.10
2019-05-05T09:33:05.751Z,5.87
2019-05-05T09:35:35.098Z,5.13
2019-05-05T09:38:04.586Z,8.23
2019-05-05T09:40:41.292Z,6.37
2019-05-05T09:43:11.321Z,8.70
2019-05-05T09:45:41.139Z,10.73
2019-05-05T09:48:10.634Z,6.63
2019-05-05T09:50:43.679Z,4.03
2019-05-05T09:53:14.553Z,4.30
2019-05-05T09:55:44.426Z,18.23
2019-05-05T09:58:14.559Z,5.40
2019-05-05T10:00:47.700Z,7.07
2019-05-05T10:03:17.124Z,7.63
2019-05-05T10:05:46.506Z,5.80
2019-05-05T10:08:15.739Z,4.53
2019-05-05T10:10:45.312Z,5.67
2019-05-05T10:13:15.068Z,5.73
2019-05-05T10:15:44.622Z,5.40
2019-05-05T10:18:14.267Z,6.03
2019-05-05T10:20:43.641Z,4.80
2019-05-05T10:23:14.263Z,6.20
2019-05-05T10:25:53.820Z,5.60
2019-05-05T10:28:23.877Z,5.10
2019-05-05T10:30:53.856Z,6.47
2019-05-05T10:33:24.712Z,4.50
2019-05-05T10:35:54.216Z,5.23
2019-05-05T10:38:23.667Z,6.90
2019-05-05T10:40:53.724Z,6.23
2019-05-05T10:43:23.856Z,4.30
2019-05-05T10:45:54.704Z,5.03
2019-05-05T10:48:24.142Z,4.73
2019-05-05T10:50:53.793Z,4.60
2019-05-05T10:53:23.135Z,6.07
2019-05-05T10:55:53.970Z,4.40
2019-05-05T10:58:24.383Z,5.90
2019-05-05T11:01:00.046Z,5.27
2019-05-05T11:03:29.462Z,5.43
2019-05-05T11:05:58.771Z,4.03
2019-05-05T11:08:30.662Z,5.90
2019-05-05T11:10:59.682Z,5.10
2019-05-05T11:13:28.822Z,4.97
2019-05-05T11:15:58.015Z,4.80
2019-05-05T11:18:27.369Z,4.77
2019-05-05T11:20:57.660Z,4.37
2019-05-05T11:23:26.891Z,5.93
2019-05-05T11:25:56.138Z,4.33
2019-05-05T11:28:25.359Z,5.27
2019-05-05T11:30:54.718Z,7.13
2019-05-05T11:33:58.128Z,5.30
2019-05-05T11:36:46.472Z,6.97
2019-05-05T11:39:15.726Z,8.80
2019-05-05T11:41:45.087Z,10.00
2019-05-05T11:44:15.178Z,7.57
2019-05-05T11:46:44.759Z,7.47
2019-05-05T11:49:14.116Z,8.03
2019-05-05T11:51:43.802Z,7.90
2019-05-05T11:54:13.994Z,6.47
2019-05-05T11:56:44.667Z,6.20
2019-05-05T11:59:14.540Z,7.07
2019-05-05T12:01:44.181Z,12.80
2019-05-05T12:04:14.803Z,6.70
2019-05-05T12:06:45.237Z,6.33
2019-05-05T12:09:24.731Z,8.57
2019-05-05T12:11:54.954Z,8.20
2019-05-05T12:14:27.310Z,7.70
2019-05-05T12:16:56.789Z,7.63
2019-05-05T12:19:27.733Z,5.83
2019-05-05T12:21:57.233Z,6.70
2019-05-05T12:24:31.032Z,6.63
2019-05-05T12:27:15.567Z,5.47
2019-05-05T12:29:49.635Z,7.70
2019-05-05T12:32:18.895Z,7.13
2019-05-05T12:34:48.119Z,6.87
2019-05-05T12:37:17.401Z,4.97
2019-05-05T12:39:46.683Z,6.97
2019-05-05T12:42:15.964Z,5.27
2019-05-05T12:44:53.398Z,7.33
2019-05-05T12:47:41.103Z,7.70
2019-05-05T12:50:10.667Z,7.70
2019-05-05T12:52:39.951Z,6.83
2019-05-05T12:55:09.096Z,7.43
2019-05-05T12:57:38.342Z,7.03
2019-05-05T13:00:08.571Z,5.93
2019-05-05T13:02:38.015Z,5.33
2019-05-05T13:05:07.486Z,7.83
2019-05-05T13:07:36.643Z,7.63
2019-05-05T13:10:07.355Z,8.77
2019-05-05T13:12:36.500Z,9.67
2019-05-05T13:15:06.754Z,7.77
2019-05-05T13:17:35.967Z,11.77
2019-05-05T13:20:21.290Z,8.87
2019-05-05T13:23:09.551Z,8.73
2019-05-05T13:25:55.899Z,14.53
2019-05-05T13:28:19.763Z,10.13
2019-05-05T13:30:49.074Z,10.60
2019-05-05T13:33:18.218Z,11.57
2019-05-05T13:35:47.613Z,9.73
2019-05-05T13:38:17.139Z,9.37
2019-05-05T13:40:46.647Z,9.70
2019-05-05T13:43:16.254Z,10.03
2019-05-05T13:46:02.401Z,11.57
2019-05-05T13:48:33.365Z,9.40
2019-05-05T13:51:04.346Z,8.10
2019-05-05T13:53:34.323Z,10.57
2019-05-05T13:56:12.029Z,9.87
2019-05-05T13:58:35.536Z,10.43
2019-05-05T14:01:04.964Z,9.57
2019-05-05T14:03:35.005Z,11.53
2019-05-05T14:06:04.803Z,7.67
2019-05-05T14:08:36.278Z,13.63
2019-05-05T14:11:05.193Z,7.47
2019-05-05T14:13:34.341Z,10.23
2019-05-05T14:16:03.975Z,9.70
2019-05-05T14:18:33.382Z,8.93
2019-05-05T14:21:02.626Z,9.40
2019-05-05T14:23:34.526Z,9.70
2019-05-05T14:26:04.041Z,11.77
2019-05-05T14:28:34.003Z,11.17
2019-05-05T14:31:11.203Z,12.57
2019-05-05T14:33:57.992Z,8.67
2019-05-05T14:36:55.353Z,9.10
2019-05-05T14:39:24.574Z,10.47
2019-05-05T14:41:54.004Z,11.90
2019-05-05T14:44:24.041Z,9.80
2019-05-05T14:46:53.458Z,10.03
2019-05-05T14:49:24.479Z,10.33
2019-05-05T14:51:53.909Z,9.93
2019-05-05T14:54:23.143Z,9.80
2019-05-05T14:56:54.352Z,10.57
2019-05-05T14:59:23.583Z,11.63
2019-05-05T15:01:53.001Z,11.53
2019-05-05T15:04:23.958Z,10.07
2019-05-05T15:07:04.033Z,10.03
2019-05-05T15:09:44.080Z,14.20
2019-05-05T15:12:18.534Z,9.97
2019-05-05T15:14:47.700Z,10.00
2019-05-05T15:17:16.868Z,11.90
2019-05-05T15:19:46.168Z,11.30
2019-05-05T15:22:15.415Z,11.33
2019-05-05T15:24:44.655Z,12.80
2019-05-05T15:27:13.951Z,21.40
2019-05-05T15:29:43.717Z,11.33
2019-05-05T15:32:14.890Z,8.30
2019-05-05T15:34:44.027Z,10.63
2019-05-05T15:37:14.481Z,9.20
2019-05-05T15:39:44.399Z,7.20
2019-05-05T15:42:13.647Z,14.90
2019-05-05T15:44:43.948Z,8.13
2019-05-05T15:47:13.346Z,10.20
2019-05-05T15:49:44.060Z,10.40
2019-05-05T15:52:13.825Z,12.23
2019-05-05T15:54:44.685Z,8.80
2019-05-05T15:57:14.820Z,11.73
2019-05-05T15:59:45.145Z,10.70
2019-05-05T16:02:14.300Z,11.97
2019-05-05T16:04:43.541Z,11.10
2019-05-05T16:07:13.826Z,15.50
2019-05-05T16:09:46.525Z,11.93
2019-05-05T16:12:14.429Z,11.53
2019-05-05T16:14:53.707Z,14.20
2019-05-05T16:17:57.083Z,8.33
2019-05-05T16:20:35.843Z,9.37
2019-05-05T16:23:15.926Z,10.47
2019-05-05T16:25:46.696Z,11.53
2019-05-05T16:28:16.130Z,15.50
2019-05-05T16:30:45.388Z,10.83
2019-05-05T16:33:14.616Z,9.20
2019-05-05T16:35:43.909Z,11.00
2019-05-05T16:38:14.930Z,10.23
2019-05-05T16:40:44.625Z,15.63
2019-05-05T16:43:16.525Z,11.93
2019-05-05T16:45:44.853Z,10.23
2019-05-05T16:48:14.213Z,12.27
2019-05-05T16:50:44.287Z,12.60
2019-05-05T16:53:34.370Z,11.73
2019-05-05T16:56:04.519Z,12.90
2019-05-05T16:58:33.870Z,10.27
2019-05-05T17:01:03.844Z,9.53
2019-05-05T17:03:33.205Z,10.70
2019-05-05T17:06:03.772Z,12.43
2019-05-05T17:08:33.811Z,9.17
2019-05-05T17:11:03.199Z,12.97
2019-05-05T17:13:44.069Z,13.53
2019-05-05T17:16:34.994Z,11.43
2019-05-05T17:19:14.139Z,11.13
2019-05-05T17:22:01.155Z,13.87
2019-05-05T17:24:30.313Z,12.77
2019-05-05T17:26:59.492Z,13.43
2019-05-05T17:29:28.746Z,12.03
2019-05-05T17:31:58.011Z,12.93
2019-05-05T17:34:27.153Z,15.63
2019-05-05T17:36:56.393Z,12.37
2019-05-05T17:39:27.414Z,12.40
2019-05-05T17:42:07.985Z,15.67
2019-05-05T17:44:44.422Z,12.77
2019-05-05T17:47:38.972Z,12.63
2019-05-05T17:50:16.293Z,13.80
2019-05-05T17:52:48.858Z,13.03
2019-05-05T17:55:28.508Z,14.73
2019-05-05T17:58:01.725Z,15.07
2019-05-05T18:00:30.430Z,9.90
2019-05-05T18:02:59.624Z,15.20
2019-05-05T18:05:46.923Z,14.17
2019-05-05T18:08:41.493Z,15.33
2019-05-05T18:11:35.035Z,12.37
2019-05-05T18:14:08.732Z,12.87
2019-05-05T18:16:38.098Z,14.90
2019-05-05T18:19:07.370Z,14.53
2019-05-05T18:21:36.595Z,17.07
2019-05-05T18:24:05.827Z,14.07
2019-05-05T18:26:35.111Z,15.13
2019-05-05T18:29:04.411Z,17.27
2019-05-05T18:31:33.795Z,14.77
2019-05-05T18:34:04.002Z,14.63
2019-05-05T18:36:33.579Z,17.20
2019-05-05T18:39:04.448Z,16.33
2019-05-05T18:41:43.897Z,13.43
2019-05-05T18:44:27.271Z,12.07
2019-05-05T18:47:15.686Z,12.30
2019-05-05T18:49:43.928Z,14.23
2019-05-05T18:52:13.900Z,15.63
2019-05-05T18:54:43.725Z,15.77
2019-05-05T18:57:13.169Z,14.37
2019-05-05T18:59:44.515Z,18.00
2019-05-05T19:02:20.058Z,18.07
2019-05-05T19:05:01.488Z,12.50
2019-05-05T19:07:37.131Z,14.77
2019-05-05T19:10:07.074Z,13.87
2019-05-05T19:12:36.247Z,17.43
2019-05-05T19:15:05.931Z,15.47
2019-05-05T19:17:35.253Z,13.53
2019-05-05T19:20:10.706Z,12.37
2019-05-05T19:22:39.926Z,12.90
2019-05-05T19:25:15.370Z,15.27
2019-05-05T19:27:45.682Z,16.20
2019-05-05T19:30:15.514Z,17.73
2019-05-05T19:32:44.767Z,19.90
2019-05-05T19:35:14.690Z,13.43
2019-05-05T19:37:44.481Z,15.00
2019-05-05T19:40:14.321Z,16.77
2019-05-05T19:42:45.966Z,18.90
2019-05-05T19:45:14.756Z,20.30
2019-05-05T19:47:44.149Z,13.57
2019-05-05T19:50:36.712Z,25.37
2019-05-05T19:53:07.518Z,18.53
2019-05-05T19:55:36.705Z,12.00
2019-05-05T19:58:05.941Z,16.17
2019-05-05T20:00:38.445Z,21.33
2019-05-05T20:03:06.225Z,13.80
2019-05-05T20:05:35.469Z,18.57
2019-05-05T20:08:04.773Z,17.60
2019-05-05T20:10:34.102Z,17.83
2019-05-05T20:13:05.087Z,14.53
2019-05-05T20:15:40.503Z,18.20
2019-05-05T20:18:09.663Z,29.63
2019-05-05T20:20:38.931Z,20.63
2019-05-05T20:23:08.183Z,17.70
2019-05-05T20:25:37.439Z,14.97
2019-05-05T20:28:06.681Z,17.63
2019-05-05T20:30:35.970Z,17.83
2019-05-05T20:33:10.378Z,13.47
2019-05-05T20:35:53.907Z,12.93
2019-05-05T20:38:30.250Z,18.77
2019-05-05T20:41:18.447Z,17.93
2019-05-05T20:43:47.763Z,22.20
2019-05-05T20:46:17.026Z,15.30
2019-05-05T20:48:46.259Z,14.77
2019-05-05T20:51:15.488Z,17.63
2019-05-05T20:53:46.034Z,20.10
2019-05-05T20:56:15.623Z,15.33
2019-05-05T20:58:44.931Z,14.73
2019-05-05T21:01:14.442Z,19.00
2019-05-05T21:03:43.587Z,20.77
2019-05-05T21:06:13.834Z,21.10
2019-05-05T21:08:44.053Z,18.20
2019-05-05T21:11:14.286Z,16.73
2019-05-05T21:13:45.055Z,16.33
2019-05-05T21:16:14.695Z,15.27
2019-05-05T21:18:44.043Z,12.83
2019-05-05T21:21:18.791Z,18.03
2019-05-05T21:24:06.387Z,17.37
2019-05-05T21:26:52.370Z,16.23
2019-05-05T21:29:23.500Z,16.53
2019-05-05T21:31:54.682Z,17.13
2019-05-05T21:34:24.845Z,16.70
2019-05-05T21:36:54.277Z,14.50
2019-05-05T21:39:24.871Z,14.07
2019-05-05T21:41:54.220Z,16.83
2019-05-05T21:44:23.427Z,19.30
2019-05-05T21:46:53.714Z,17.10
2019-05-05T21:49:24.247Z,17.07
2019-05-05T21:52:14.994Z,18.87
2019-05-05T21:55:04.249Z,16.40
2019-05-05T21:57:51.538Z,20.57
2019-05-05T22:00:38.731Z,15.70
2019-05-05T22:03:09.565Z,13.93
2019-05-05T22:05:38.886Z,17.53
2019-05-05T22:08:08.059Z,16.97
2019-05-05T22:10:37.207Z,15.53
2019-05-05T22:13:06.461Z,15.40
2019-05-05T22:15:36.019Z,16.97
2019-05-05T22:18:05.399Z,16.87
2019-05-05T22:20:40.234Z,16.43
2019-05-05T22:23:09.516Z,17.03
2019-05-05T22:25:38.695Z,18.33
2019-05-05T22:28:07.982Z,20.43
2019-05-05T22:30:37.647Z,19.80
2019-05-05T22:33:06.807Z,17.07
2019-05-05T22:35:36.192Z,17.37
2019-05-05T22:38:06.120Z,13.83
2019-05-05T22:40:35.515Z,16.67
2019-05-05T22:43:04.735Z,15.13
2019-05-05T22:45:34.212Z,15.67
2019-05-05T22:48:04.671Z,13.73
2019-05-05T22:50:34.695Z,15.17
2019-05-05T22:53:04.015Z,15.23
2019-05-05T22:55:34.379Z,15.90
2019-05-05T22:58:04.111Z,15.83
2019-05-05T23:00:34.785Z,16.33
2019-05-05T23:03:14.307Z,14.43
2019-05-05T23:05:54.745Z,13.17
2019-05-05T23:08:24.346Z,15.50
2019-05-05T23:10:54.393Z,18.90
2019-05-05T23:13:23.791Z,18.90
2019-05-05T23:16:18.116Z,18.10
2019-05-05T23:18:47.348Z,14.33
2019-05-05T23:21:29.829Z,14.17
2019-05-05T23:24:16.871Z,12.60
2019-05-05T23:26:47.159Z,14.80
2019-05-05T23:29:16.310Z,17.53
2019-05-05T23:31:45.574Z,16.43
2019-05-05T23:34:14.857Z,15.43
2019-05-05T23:36:44.419Z,17.63
2019-05-05T23:39:13.714Z,15.10
2019-05-05T23:41:42.890Z,15.90
2019-05-05T23:44:14.247Z,15.83
2019-05-05T23:46:43.061Z,17.70
2019-05-05T23:49:13.794Z,18.13
2019-05-05T23:51:44.098Z,22.23
2019-05-05T23:54:13.675Z,13.97
2019-05-05T23:56:44.149Z,18.23
2019-05-05T23:59:13.680Z,14.83
